Manseau, Canada
Current Conditions -  °F | °C
As of 9:00 AM on Tuesday 21 Oct 2014 (Local Time) from CYRQ Reporting Station
Overcast Overcast  
Wind Chill: 32°   Ceiling: 3500
Heat Index: 39°   Visibility: 9mi
Dew Point: 30°   Wind: 12mph
Humidity: 70%   Direction: 30°NNE
Pressure: 30.06"   Gusts: 17mph
Location:  46.37°N, 72.02°W
Report Text: CYRQ 211300Z AUTO 03010G15KT 9SM OVC035 04/M01 A3006 RMK SLP182
Loading
Personal Weather Stations






























Interactive Weather Map
Tropical Storm Tracking
New forecast layout! Learn more

10-Day Weather Forecast

Advertisements
Track Severe Weather on mobile